Time;durP1;ratioP1;P1;durP2;ratioP2;P2;SDS_P1;SDS_P2;PMS_P1;PMS_P2;Temp;Humidity;BMP_temperature;BMP_pressure;BME280_temperature;BME280_humidity;BME280_pressure;Samples;Min_cycle;Max_cycle;Signal;HPM_P1;HPM_P2
2023/09/17 00:00:17;;;;;;;15.47;11.37;;;;;;;;;;5046374;28;20465;-79
2023/09/17 00:02:45;;;;;;;14.40;11.70;;;;;;;;;;5044278;28;20501;-79
2023/09/17 00:05:13;;;;;;;14.10;12.60;;;;;;;;;;5046115;28;20533;-78
2023/09/17 00:07:41;;;;;;;14.60;11.60;;;;;;;;;;5046448;28;20442;-78
2023/09/17 00:10:10;;;;;;;13.87;12.40;;;;;;;;;;5048691;28;20565;-78
2023/09/17 00:12:38;;;;;;;13.57;10.87;;;;;;;;;;5046115;28;20450;-78
2023/09/17 00:15:07;;;;;;;19.97;11.80;;;;;;;;;;5044919;28;20446;-78
2023/09/17 00:17:37;;;;;;;13.43;11.10;;;;;;;;;;5045856;28;20451;-77
2023/09/17 00:20:12;;;;;;;12.67;10.60;;;;;;;;;;5046556;28;20497;-78
2023/09/17 00:22:42;;;;;;;14.87;10.63;;;;;;;;;;5043885;28;20592;-77
2023/09/17 00:25:11;;;;;;;12.60;9.80;;;;;;;;;;5042179;28;20459;-78
2023/09/17 00:27:39;;;;;;;11.93;8.80;;;;;;;;;;5042960;28;20458;-79
2023/09/17 00:30:11;;;;;;;11.43;8.53;;;;;;;;;;5046700;28;20504;-79
2023/09/17 00:32:41;;;;;;;11.97;8.50;;;;;;;;;;5048837;28;20442;-78
2023/09/17 00:35:09;;;;;;;11.93;9.57;;;;;;;;;;5047747;28;20454;-79
2023/09/17 00:37:37;;;;;;;11.27;9.57;;;;;;;;;;5045528;28;20458;-79
2023/09/17 00:40:09;;;;;;;11.30;8.43;;;;;;;;;;5048914;28;20553;-79
2023/09/17 00:57:17;;;;;;;14.13;8.73;;;;;;;;;;5171536;22;20562;-75
2023/09/17 00:59:48;;;;;;;12.43;8.67;;;;;;;;;;5000284;28;20450;-75
2023/09/17 01:02:17;;;;;;;10.13;8.20;;;;;;;;;;5001659;28;20502;-75
2023/09/17 01:04:49;;;;;;;11.73;9.23;;;;;;;;;;5001011;28;20448;-75
2023/09/17 01:07:17;;;;;;;13.93;8.73;;;;;;;;;;4999226;28;20452;-75
2023/09/17 01:09:46;;;;;;;13.30;9.63;;;;;;;;;;5001692;28;20448;-75
2023/09/17 01:12:18;;;;;;;11.53;8.90;;;;;;;;;;5000454;28;20463;-76
2023/09/17 01:14:47;;;;;;;12.50;8.90;;;;;;;;;;5000142;28;20961;-76
2023/09/17 01:17:27;;;;;;;11.80;8.67;;;;;;;;;;5001100;28;20460;-76
2023/09/17 01:19:55;;;;;;;10.80;9.00;;;;;;;;;;5002258;28;20470;-75
2023/09/17 01:22:26;;;;;;;10.50;8.37;;;;;;;;;;5002514;28;20892;-76
2023/09/17 01:24:57;;;;;;;11.27;9.37;;;;;;;;;;5000223;28;20718;-76
2023/09/17 01:27:27;;;;;;;10.60;9.00;;;;;;;;;;5001242;28;20718;-76
2023/09/17 01:29:56;;;;;;;13.30;9.20;;;;;;;;;;5000961;28;20476;-76
2023/09/17 01:32:24;;;;;;;14.00;10.00;;;;;;;;;;5000599;28;20448;-75
2023/09/17 01:34:53;;;;;;;14.23;9.80;;;;;;;;;;5000780;28;20575;-76
2023/09/17 01:37:26;;;;;;;14.57;9.50;;;;;;;;;;5001243;28;20515;-75
2023/09/17 01:39:55;;;;;;;12.73;8.63;;;;;;;;;;4999952;28;21024;-75
2023/09/17 01:44:54;;;;;;;11.73;8.30;;;;;;;;;;5058052;28;20583;-76
2023/09/17 01:47:22;;;;;;;11.37;9.37;;;;;;;;;;5060521;28;20722;-75
2023/09/17 01:49:50;;;;;;;14.27;9.60;;;;;;;;;;5039328;28;20901;-75
2023/09/17 01:52:22;;;;;;;10.77;8.47;;;;;;;;;;5040705;28;20908;-75
2023/09/17 01:54:51;;;;;;;10.90;9.07;;;;;;;;;;5038682;28;20545;-74
2023/09/17 01:57:31;;;;;;;11.17;9.03;;;;;;;;;;5039920;28;20858;-74
2023/09/17 02:00:14;;;;;;;14.30;9.23;;;;;;;;;;5038552;28;20541;-75
2023/09/17 02:02:57;;;;;;;14.20;10.13;;;;;;;;;;5038325;28;20824;-74
2023/09/17 02:05:25;;;;;;;14.57;10.10;;;;;;;;;;5039344;28;20540;-75
2023/09/17 02:07:56;;;;;;;15.73;11.67;;;;;;;;;;5037870;28;20469;-74
2023/09/17 02:10:24;;;;;;;13.07;9.53;;;;;;;;;;5038940;28;20455;-76
2023/09/17 02:12:54;;;;;;;12.50;10.10;;;;;;;;;;5038367;28;20520;-76
2023/09/17 02:15:24;;;;;;;13.97;9.83;;;;;;;;;;5039161;28;20458;-75
2023/09/17 02:17:54;;;;;;;12.13;9.10;;;;;;;;;;5041412;28;20761;-76
2023/09/17 02:20:32;;;;;;;11.80;9.33;;;;;;;;;;5061454;28;20845;-75
2023/09/17 02:23:02;;;;;;;14.70;10.80;;;;;;;;;;5061546;28;20485;-75
2023/09/17 02:25:31;;;;;;;11.93;9.10;;;;;;;;;;5060445;28;20805;-75
2023/09/17 02:27:59;;;;;;;10.50;9.33;;;;;;;;;;5059302;28;20453;-75
2023/09/17 02:33:36;;;;;;;13.63;9.80;;;;;;;;;;5059248;28;20656;-75
2023/09/17 02:38:56;;;;;;;11.43;9.80;;;;;;;;;;5059741;28;20437;-76
2023/09/17 02:41:28;;;;;;;17.20;8.87;;;;;;;;;;5058103;28;20461;-77
2023/09/17 02:44:05;;;;;;;11.40;8.87;;;;;;;;;;5055748;28;20512;-76
2023/09/17 02:46:34;;;;;;;10.20;7.90;;;;;;;;;;5057287;28;20448;-76
2023/09/17 02:49:02;;;;;;;10.90;9.20;;;;;;;;;;5054043;28;20541;-76
2023/09/17 02:51:31;;;;;;;10.30;8.93;;;;;;;;;;5055132;28;20468;-76
2023/09/17 02:53:59;;;;;;;9.60;7.87;;;;;;;;;;5055865;28;20454;-76
2023/09/17 02:56:27;;;;;;;11.60;8.97;;;;;;;;;;5055500;28;20453;-76
2023/09/17 02:58:59;;;;;;;12.33;9.30;;;;;;;;;;5055048;28;20461;-76
2023/09/17 03:01:27;;;;;;;13.40;9.60;;;;;;;;;;5055335;28;20458;-76
2023/09/17 03:03:57;;;;;;;11.40;9.30;;;;;;;;;;5056166;28;20870;-75
2023/09/17 03:06:25;;;;;;;14.57;9.13;;;;;;;;;;5056952;28;20461;-76
2023/09/17 03:08:53;;;;;;;15.60;9.90;;;;;;;;;;5056637;28;20464;-75
2023/09/17 03:11:21;;;;;;;11.33;9.67;;;;;;;;;;5056382;28;20445;-76
2023/09/17 03:13:52;;;;;;;11.23;8.87;;;;;;;;;;5055308;28;20484;-77
2023/09/17 03:16:20;;;;;;;12.10;9.33;;;;;;;;;;5055416;28;20437;-76
2023/09/17 03:18:48;;;;;;;10.93;8.13;;;;;;;;;;5056529;28;20449;-76
2023/09/17 03:21:21;;;;;;;11.10;8.70;;;;;;;;;;5056402;28;20449;-76
2023/09/17 03:23:49;;;;;;;11.43;8.70;;;;;;;;;;5054726;28;20576;-76
2023/09/17 03:26:17;;;;;;;10.87;8.40;;;;;;;;;;5056452;28;20548;-76
2023/09/17 03:28:45;;;;;;;13.07;8.97;;;;;;;;;;5057747;28;20460;-76
2023/09/17 03:31:14;;;;;;;10.70;8.00;;;;;;;;;;5057218;28;20460;-75
2023/09/17 03:33:43;;;;;;;11.20;7.73;;;;;;;;;;5056236;28;20465;-75
2023/09/17 03:36:12;;;;;;;13.40;8.60;;;;;;;;;;5055721;28;20436;-75
2023/09/17 03:38:42;;;;;;;11.63;8.83;;;;;;;;;;5056521;28;20820;-76
2023/09/17 03:41:10;;;;;;;10.87;8.47;;;;;;;;;;5055892;28;20445;-75
2023/09/17 03:43:38;;;;;;;12.13;7.90;;;;;;;;;;5055517;28;20577;-76
2023/09/17 03:46:08;;;;;;;14.93;8.20;;;;;;;;;;5061353;28;20481;-77
2023/09/17 03:48:39;;;;;;;9.80;6.73;;;;;;;;;;5066523;28;20467;-77
2023/09/17 03:51:08;;;;;;;9.10;6.30;;;;;;;;;;5057086;28;20930;-76
2023/09/17 03:53:36;;;;;;;8.30;6.57;;;;;;;;;;5054818;28;20496;-76
2023/09/17 03:56:06;;;;;;;9.83;7.13;;;;;;;;;;5057719;28;20456;-76
2023/09/17 03:58:34;;;;;;;10.07;6.90;;;;;;;;;;5059368;28;20706;-76
2023/09/17 04:01:06;;;;;;;9.70;6.80;;;;;;;;;;5058765;28;20892;-75
2023/09/17 04:03:34;;;;;;;12.17;6.83;;;;;;;;;;5057414;28;20940;-75
2023/09/17 04:06:04;;;;;;;10.60;8.10;;;;;;;;;;5058797;28;20445;-76
2023/09/17 04:08:32;;;;;;;10.97;8.17;;;;;;;;;;5057294;28;20797;-76
2023/09/17 04:11:00;;;;;;;9.17;6.40;;;;;;;;;;5058064;28;20501;-75
2023/09/17 04:13:30;;;;;;;12.87;8.13;;;;;;;;;;5057312;28;20457;-75
2023/09/17 04:15:59;;;;;;;10.13;7.13;;;;;;;;;;5056845;28;20520;-76
2023/09/17 04:18:27;;;;;;;12.13;7.70;;;;;;;;;;5057551;28;20438;-75
2023/09/17 04:20:55;;;;;;;10.00;7.03;;;;;;;;;;5058455;28;20453;-75
2023/09/17 04:23:24;;;;;;;9.10;7.00;;;;;;;;;;5056989;28;20627;-76
2023/09/17 04:25:53;;;;;;;11.57;7.60;;;;;;;;;;5057542;28;20556;-77
2023/09/17 04:28:21;;;;;;;9.53;7.03;;;;;;;;;;5056545;28;20757;-76
2023/09/17 04:30:51;;;;;;;9.30;6.77;;;;;;;;;;5058599;28;20457;-77
2023/09/17 04:33:19;;;;;;;8.83;6.40;;;;;;;;;;5058132;28;20454;-75
2023/09/17 04:35:47;;;;;;;10.37;7.07;;;;;;;;;;5058162;28;20722;-75
2023/09/17 04:38:20;;;;;;;9.67;7.10;;;;;;;;;;5056987;28;20744;-75
2023/09/17 04:40:51;;;;;;;10.50;7.20;;;;;;;;;;5056915;28;20488;-76
2023/09/17 04:43:20;;;;;;;9.43;6.67;;;;;;;;;;5054933;28;20497;-75
2023/09/17 04:45:48;;;;;;;8.83;6.40;;;;;;;;;;5056998;28;20485;-76
2023/09/17 04:48:18;;;;;;;8.87;6.33;;;;;;;;;;5056917;28;20585;-76
2023/09/17 04:50:49;;;;;;;8.57;6.50;;;;;;;;;;5056573;28;20449;-76
2023/09/17 04:53:18;;;;;;;8.37;6.60;;;;;;;;;;5056556;28;20702;-76
2023/09/17 04:55:46;;;;;;;8.63;6.20;;;;;;;;;;5057215;28;20472;-77
2023/09/17 04:58:14;;;;;;;9.17;6.87;;;;;;;;;;5059163;28;20457;-77
2023/09/17 05:00:45;;;;;;;9.40;7.30;;;;;;;;;;5060412;28;20449;-77
2023/09/17 05:03:16;;;;;;;7.97;6.10;;;;;;;;;;5057973;28;20481;-76
2023/09/17 05:05:49;;;;;;;10.83;7.37;;;;;;;;;;5058422;28;20729;-75
2023/09/17 05:08:18;;;;;;;9.70;7.07;;;;;;;;;;5058367;28;20519;-76
2023/09/17 05:10:52;;;;;;;8.17;6.30;;;;;;;;;;5059967;28;20735;-76
2023/09/17 05:13:20;;;;;;;9.30;6.53;;;;;;;;;;5056212;28;20608;-76
2023/09/17 05:15:49;;;;;;;9.00;6.50;;;;;;;;;;5049666;28;21045;-75
2023/09/17 05:18:20;;;;;;;8.53;6.43;;;;;;;;;;5038082;28;20462;-76
2023/09/17 05:20:53;;;;;;;10.30;7.00;;;;;;;;;;5033286;28;20469;-76
2023/09/17 05:23:21;;;;;;;9.00;6.40;;;;;;;;;;5033257;28;21022;-76
2023/09/17 05:25:50;;;;;;;10.60;7.47;;;;;;;;;;5034121;28;20477;-76
2023/09/17 05:28:21;;;;;;;8.43;6.50;;;;;;;;;;5033027;28;20577;-75
2023/09/17 05:30:56;;;;;;;8.50;5.93;;;;;;;;;;5033400;28;20455;-76
2023/09/17 05:33:26;;;;;;;8.00;6.23;;;;;;;;;;5031313;28;20462;-75
2023/09/17 05:35:56;;;;;;;9.00;6.47;;;;;;;;;;5032257;28;20502;-75
2023/09/17 05:38:24;;;;;;;10.30;8.83;;;;;;;;;;5032334;28;20465;-75
2023/09/17 05:40:56;;;;;;;9.03;6.07;;;;;;;;;;5033761;28;20454;-75
2023/09/17 05:43:28;;;;;;;7.97;6.17;;;;;;;;;;5034422;28;20556;-75
2023/09/17 05:45:57;;;;;;;8.20;6.43;;;;;;;;;;5037716;28;20505;-76
2023/09/17 05:48:28;;;;;;;8.50;6.93;;;;;;;;;;5038876;28;20461;-75
2023/09/17 05:50:57;;;;;;;10.17;7.20;;;;;;;;;;5039060;28;20875;-75
2023/09/17 05:53:32;;;;;;;9.00;6.70;;;;;;;;;;5038569;28;20455;-75
2023/09/17 05:56:01;;;;;;;19.70;7.50;;;;;;;;;;5040103;28;20472;-75
2023/09/17 05:58:36;;;;;;;9.90;7.20;;;;;;;;;;5052591;28;20523;-77
2023/09/17 06:01:04;;;;;;;10.07;7.33;;;;;;;;;;5056018;28;20453;-76
2023/09/17 06:03:40;;;;;;;10.43;6.90;;;;;;;;;;5055123;28;20493;-77
2023/09/17 06:06:10;;;;;;;10.57;7.17;;;;;;;;;;5056494;28;20457;-75
2023/09/17 06:08:38;;;;;;;9.10;6.93;;;;;;;;;;5055850;28;20453;-74
2023/09/17 06:11:08;;;;;;;8.50;6.83;;;;;;;;;;5055533;28;20655;-75
2023/09/17 06:13:38;;;;;;;14.80;8.50;;;;;;;;;;5054785;28;20445;-75
2023/09/17 06:16:07;;;;;;;10.57;7.67;;;;;;;;;;5052569;28;20472;-75
2023/09/17 06:18:38;;;;;;;10.80;6.90;;;;;;;;;;5036006;28;20564;-75
2023/09/17 06:21:06;;;;;;;9.03;6.83;;;;;;;;;;5049824;28;20456;-75
2023/09/17 06:23:36;;;;;;;12.70;8.10;;;;;;;;;;5055337;28;20551;-75
2023/09/17 06:26:11;;;;;;;10.50;8.17;;;;;;;;;;5048916;28;20474;-75
2023/09/17 06:28:39;;;;;;;9.70;7.70;;;;;;;;;;5036270;28;20897;-74
2023/09/17 06:31:09;;;;;;;10.37;7.57;;;;;;;;;;5035791;28;20469;-75
2023/09/17 06:33:37;;;;;;;11.10;7.37;;;;;;;;;;5035525;28;20484;-76
2023/09/17 06:36:06;;;;;;;10.90;8.30;;;;;;;;;;5035500;28;21104;-76
2023/09/17 06:38:36;;;;;;;9.90;7.57;;;;;;;;;;5035767;28;20446;-74
2023/09/17 06:41:04;;;;;;;10.83;7.50;;;;;;;;;;5036479;28;20461;-75
2023/09/17 06:43:34;;;;;;;10.90;8.40;;;;;;;;;;5035292;28;20550;-75
2023/09/17 06:46:12;;;;;;;11.47;8.03;;;;;;;;;;5035038;28;20470;-74
2023/09/17 06:48:40;;;;;;;9.40;7.97;;;;;;;;;;5036408;28;20882;-75
2023/09/17 06:51:08;;;;;;;10.93;7.13;;;;;;;;;;5035503;28;20447;-75
2023/09/17 06:53:39;;;;;;;10.80;7.30;;;;;;;;;;5035135;28;20459;-75
2023/09/17 06:56:10;;;;;;;11.57;7.47;;;;;;;;;;5036503;28;20862;-75
2023/09/17 06:58:39;;;;;;;11.13;7.63;;;;;;;;;;5035809;28;20478;-75
2023/09/17 07:01:15;;;;;;;9.57;7.53;;;;;;;;;;5036755;28;20454;-75
2023/09/17 07:03:43;;;;;;;9.30;7.33;;;;;;;;;;5035740;28;20499;-75
2023/09/17 07:06:16;;;;;;;9.00;7.50;;;;;;;;;;5034915;28;20486;-75
2023/09/17 07:08:46;;;;;;;9.33;6.90;;;;;;;;;;5034674;28;20462;-75
2023/09/17 07:11:16;;;;;;;11.20;7.70;;;;;;;;;;5036403;28;20885;-76
2023/09/17 07:13:47;;;;;;;9.23;7.10;;;;;;;;;;5034917;28;20451;-75
2023/09/17 07:16:19;;;;;;;11.60;7.70;;;;;;;;;;5035529;28;20485;-76
2023/09/17 07:18:49;;;;;;;9.83;7.07;;;;;;;;;;5037281;28;20777;-75
2023/09/17 07:21:17;;;;;;;10.07;8.90;;;;;;;;;;5035482;28;20769;-75
2023/09/17 07:24:03;;;;;;;15.13;7.80;;;;;;;;;;5034552;28;20493;-76
2023/09/17 07:26:32;;;;;;;11.60;8.97;;;;;;;;;;5033869;28;20449;-76
2023/09/17 07:29:05;;;;;;;10.60;8.30;;;;;;;;;;5050243;28;20493;-76
2023/09/17 07:31:33;;;;;;;10.87;8.37;;;;;;;;;;5057045;28;20492;-76
2023/09/17 07:34:03;;;;;;;9.10;7.00;;;;;;;;;;5061194;28;21071;-74
2023/09/17 07:36:31;;;;;;;11.63;8.63;;;;;;;;;;5059202;28;20778;-75
2023/09/17 07:39:00;;;;;;;9.97;7.37;;;;;;;;;;5058991;28;20460;-74
2023/09/17 07:46:50;;;;;;;10.97;8.70;;;;;;;;;;4856947;22;20466;-75
2023/09/17 07:49:18;;;;;;;11.43;9.07;;;;;;;;;;5036131;28;20481;-75
2023/09/17 07:51:47;;;;;;;10.70;8.40;;;;;;;;;;5037033;28;20457;-75
2023/09/17 07:54:18;;;;;;;12.30;9.10;;;;;;;;;;5036938;28;20792;-74
2023/09/17 07:56:51;;;;;;;13.47;9.33;;;;;;;;;;5037391;28;20464;-75
2023/09/17 07:59:29;;;;;;;10.30;8.13;;;;;;;;;;5032863;28;20963;-77
2023/09/17 08:02:19;;;;;;;11.90;8.57;;;;;;;;;;5023726;28;20746;-77
2023/09/17 08:04:48;;;;;;;12.83;8.20;;;;;;;;;;5022929;28;20754;-76
2023/09/17 08:07:18;;;;;;;10.23;8.60;;;;;;;;;;5055213;28;20546;-76
2023/09/17 08:09:48;;;;;;;12.70;8.13;;;;;;;;;;5049974;28;20445;-77
2023/09/17 08:12:24;;;;;;;10.40;8.30;;;;;;;;;;5052053;28;20516;-76
2023/09/17 08:14:55;;;;;;;12.10;8.73;;;;;;;;;;5053902;28;20449;-77
2023/09/17 08:17:23;;;;;;;10.13;7.40;;;;;;;;;;5051967;28;20465;-75
2023/09/17 08:19:54;;;;;;;12.80;8.20;;;;;;;;;;5052454;28;20518;-76
2023/09/17 08:22:27;;;;;;;9.33;7.77;;;;;;;;;;5053723;28;20456;-76
2023/09/17 08:24:59;;;;;;;8.10;6.90;;;;;;;;;;5056132;28;20547;-76
2023/09/17 08:27:27;;;;;;;13.57;7.13;;;;;;;;;;5056097;28;21061;-76
2023/09/17 08:29:57;;;;;;;9.23;6.67;;;;;;;;;;5057973;28;20482;-76
2023/09/17 08:32:25;;;;;;;10.63;7.27;;;;;;;;;;5056288;28;20490;-76
2023/09/17 08:34:58;;;;;;;9.33;7.13;;;;;;;;;;5054791;28;20449;-77
2023/09/17 08:37:31;;;;;;;10.67;7.50;;;;;;;;;;5054453;28;20448;-76
2023/09/17 08:47:59;;;;;;;8.27;6.40;;;;;;;;;;5273674;22;20474;-78
2023/09/17 08:50:28;;;;;;;9.37;6.93;;;;;;;;;;5038759;28;20747;-76
2023/09/17 08:53:05;;;;;;;8.10;5.80;;;;;;;;;;5036134;28;20871;-76
2023/09/17 08:55:45;;;;;;;8.83;6.17;;;;;;;;;;5037954;28;20454;-78
2023/09/17 08:58:27;;;;;;;10.53;5.53;;;;;;;;;;5018730;28;20454;-76
2023/09/17 09:01:03;;;;;;;9.33;6.30;;;;;;;;;;5037876;28;20451;-77
2023/09/17 09:03:33;;;;;;;8.80;5.50;;;;;;;;;;5036425;28;20519;-76
2023/09/17 09:06:03;;;;;;;13.20;5.77;;;;;;;;;;5037050;28;20470;-77
2023/09/17 09:08:33;;;;;;;11.30;6.60;;;;;;;;;;5036456;28;20446;-76
2023/09/17 09:11:09;;;;;;;10.27;6.37;;;;;;;;;;5035065;28;20500;-76
2023/09/17 09:13:38;;;;;;;8.40;5.07;;;;;;;;;;5035156;28;20466;-77
2023/09/17 09:16:13;;;;;;;8.73;5.80;;;;;;;;;;5031700;28;20561;-77
2023/09/17 09:18:50;;;;;;;10.30;5.33;;;;;;;;;;5032456;28;20541;-77
2023/09/17 09:21:28;;;;;;;10.30;4.57;;;;;;;;;;5034134;28;20486;-76
2023/09/17 09:26:55;;;;;;;8.00;4.30;;;;;;;;;;5022175;28;20844;-77
2023/09/17 09:29:46;;;;;;;;;;;;;;;;;;;;;
2023/09/17 09:34:58;;;;;;;10.50;5.70;;;;;;;;;;5018163;28;20574;-76
2023/09/17 09:37:31;;;;;;;9.80;5.37;;;;;;;;;;5040105;28;20776;-76
2023/09/17 09:40:09;;;;;;;10.07;5.37;;;;;;;;;;5052556;28;20450;-77
2023/09/17 09:45:20;;;;;;;12.13;5.93;;;;;;;;;;5050644;28;21248;-78
2023/09/17 09:47:52;;;;;;;9.00;4.30;;;;;;;;;;5051171;28;20446;-77
2023/09/17 09:50:26;;;;;;;8.30;4.30;;;;;;;;;;5052325;28;20476;-77
2023/09/17 09:52:54;;;;;;;10.30;4.73;;;;;;;;;;5051107;28;20493;-76
2023/09/17 09:55:25;;;;;;;8.90;4.23;;;;;;;;;;5051350;28;20725;-76
2023/09/17 09:57:55;;;;;;;7.63;4.13;;;;;;;;;;5052666;28;20464;-76
2023/09/17 10:00:35;;;;;;;8.77;4.10;;;;;;;;;;5050356;28;20462;-75
2023/09/17 10:03:04;;;;;;;9.37;4.50;;;;;;;;;;5051596;28;20464;-75
2023/09/17 10:05:34;;;;;;;9.63;4.33;;;;;;;;;;5054989;28;20493;-76
2023/09/17 10:08:07;;;;;;;9.97;4.17;;;;;;;;;;5055892;28;20591;-77
2023/09/17 10:10:59;;;;;;;8.60;4.00;;;;;;;;;;5042823;28;21435;-76
2023/09/17 10:13:38;;;;;;;14.87;5.20;;;;;;;;;;5031829;28;20465;-76
2023/09/17 10:16:15;;;;;;;11.30;4.60;;;;;;;;;;5031373;28;20561;-76
2023/09/17 10:18:47;;;;;;;9.57;4.67;;;;;;;;;;5034265;28;20496;-77
2023/09/17 10:21:18;;;;;;;11.23;4.90;;;;;;;;;;5041902;28;20457;-76
2023/09/17 10:23:49;;;;;;;10.57;5.00;;;;;;;;;;5048970;28;20461;-76
2023/09/17 10:26:22;;;;;;;10.00;4.23;;;;;;;;;;5053038;28;20577;-76
2023/09/17 10:29:13;;;;;;;8.10;4.00;;;;;;;;;;5046366;28;20740;-77
2023/09/17 10:31:44;;;;;;;8.60;4.60;;;;;;;;;;5033111;28;20458;-76
2023/09/17 10:34:26;;;;;;;8.97;4.83;;;;;;;;;;5032633;28;20446;-76
2023/09/17 10:36:57;;;;;;;9.33;4.30;;;;;;;;;;5058186;28;20559;-77
2023/09/17 10:39:30;;;;;;;8.10;3.73;;;;;;;;;;5052289;28;20803;-76
2023/09/17 10:42:03;;;;;;;8.70;4.53;;;;;;;;;;5074087;28;20864;-77
2023/09/17 10:47:17;;;;;;;7.17;3.80;;;;;;;;;;5066886;28;20445;-76
2023/09/17 10:50:07;;;;;;;7.77;4.20;;;;;;;;;;5061520;28;20456;-77
2023/09/17 10:55:48;;;;;;;7.27;3.90;;;;;;;;;;5034432;28;20813;-77
2023/09/17 10:58:41;;;;;;;6.80;4.00;;;;;;;;;;5052887;28;20461;-76
2023/09/17 11:01:18;;;;;;;7.17;3.77;;;;;;;;;;5035263;28;20474;-78
2023/09/17 11:06:49;;;;;;;6.33;4.23;;;;;;;;;;5033380;28;20442;-77
2023/09/17 11:09:26;;;;;;;5.90;3.40;;;;;;;;;;5040424;28;20551;-77
2023/09/17 11:12:24;;;;;;;13.80;4.43;;;;;;;;;;5039164;28;20440;-76
2023/09/17 11:14:57;;;;;;;5.77;4.13;;;;;;;;;;5033895;28;20450;-76
2023/09/17 11:20:34;;;;;;;7.33;4.60;;;;;;;;;;5052225;28;20584;-75
2023/09/17 11:23:16;;;;;;;5.00;3.57;;;;;;;;;;5061693;28;20877;-76
2023/09/17 11:25:51;;;;;;;6.50;3.13;;;;;;;;;;5068406;28;20476;-76
2023/09/17 11:28:22;;;;;;;6.57;4.10;;;;;;;;;;5080421;28;20946;-77
2023/09/17 11:30:59;;;;;;;7.93;3.60;;;;;;;;;;5080685;28;20987;-76
2023/09/17 11:33:30;;;;;;;8.40;4.30;;;;;;;;;;5079492;28;20459;-77
2023/09/17 11:36:05;;;;;;;5.60;4.13;;;;;;;;;;5079431;28;20507;-77
2023/09/17 11:38:37;;;;;;;6.40;4.50;;;;;;;;;;5076952;28;20495;-76
2023/09/17 11:44:27;;;;;;;6.77;3.67;;;;;;;;;;5059187;28;20450;-76
2023/09/17 11:47:12;;;;;;;7.90;5.03;;;;;;;;;;5057164;28;20445;-76
2023/09/17 11:49:50;;;;;;;5.87;4.23;;;;;;;;;;5053572;28;20484;-76
2023/09/17 11:52:41;;;;;;;5.27;3.67;;;;;;;;;;5059516;28;20512;-77
2023/09/17 11:55:34;;;;;;;5.53;3.87;;;;;;;;;;5052914;28;21027;-76
2023/09/17 11:58:32;;;;;;;;;;;;;;;;;;;;;
2023/09/17 12:04:13;;;;;;;7.13;3.80;;;;;;;;;;4975371;28;20453;-76
2023/09/17 12:10:04;;;;;;;5.50;3.70;;;;;;;;;;5014559;28;20443;-77
2023/09/17 12:12:37;;;;;;;5.43;3.53;;;;;;;;;;5009068;28;20728;-75
2023/09/17 12:15:10;;;;;;;6.97;4.37;;;;;;;;;;5022733;28;20585;-76
2023/09/17 12:17:43;;;;;;;10.13;3.93;;;;;;;;;;5036719;28;20481;-75
2023/09/17 12:26:10;;;;;;;5.93;4.00;;;;;;;;;;5007074;28;20533;-77
2023/09/17 12:28:39;;;;;;;7.27;4.30;;;;;;;;;;5019979;28;20532;-76
2023/09/17 12:31:23;;;;;;;5.97;3.93;;;;;;;;;;5028909;28;20450;-76
2023/09/17 12:37:05;;;;;;;11.10;4.40;;;;;;;;;;5027057;28;20451;-75
2023/09/17 12:39:34;;;;;;;6.53;4.40;;;;;;;;;;5031436;28;20458;-75
2023/09/17 12:42:03;;;;;;;6.60;4.60;;;;;;;;;;5034807;28;20481;-75
2023/09/17 12:44:35;;;;;;;8.73;4.63;;;;;;;;;;5041701;28;20572;-75
2023/09/17 12:47:07;;;;;;;6.53;4.20;;;;;;;;;;5058343;28;20449;-76
2023/09/17 12:49:41;;;;;;;7.63;4.93;;;;;;;;;;5055581;28;20544;-77
2023/09/17 12:52:37;;;;;;;7.17;4.87;;;;;;;;;;5033326;28;21182;-75
2023/09/17 12:55:21;;;;;;;8.93;4.90;;;;;;;;;;5036347;28;20922;-76
2023/09/17 12:57:52;;;;;;;8.43;4.73;;;;;;;;;;5021132;28;20462;-76
2023/09/17 13:00:43;;;;;;;8.33;4.50;;;;;;;;;;5035266;28;20454;-77
2023/09/17 13:03:18;;;;;;;9.60;5.07;;;;;;;;;;5018525;28;20484;-77
2023/09/17 13:06:00;;;;;;;9.30;4.70;;;;;;;;;;5076675;28;20494;-76
2023/09/17 13:08:41;;;;;;;9.60;5.40;;;;;;;;;;5081286;28;20445;-76
2023/09/17 13:11:33;;;;;;;10.23;4.80;;;;;;;;;;5080254;28;20555;-77
2023/09/17 13:14:30;;;;;;;8.90;4.70;;;;;;;;;;5063388;28;20548;-76
2023/09/17 13:17:22;;;;;;;10.17;4.47;;;;;;;;;;5053602;28;20473;-75
2023/09/17 13:28:50;;;;;;;11.77;5.53;;;;;;;;;;5025371;28;20443;-76
2023/09/17 13:34:32;;;;;;;9.83;5.10;;;;;;;;;;5051104;28;20430;-76
2023/09/17 13:37:14;;;;;;;9.33;5.20;;;;;;;;;;5039845;28;20906;-77
2023/09/17 13:40:07;;;;;;;10.10;5.60;;;;;;;;;;5036700;28;20477;-77
2023/09/17 13:42:40;;;;;;;9.27;4.83;;;;;;;;;;5035624;28;20532;-76
2023/09/17 13:45:19;;;;;;;8.60;4.33;;;;;;;;;;5035616;28;20473;-76
2023/09/17 13:48:09;;;;;;;9.70;5.80;;;;;;;;;;5035864;28;20466;-76
2023/09/17 13:51:00;;;;;;;31.50;24.83;;;;;;;;;;5035755;28;20464;-76
2023/09/17 13:53:48;;;;;;;9.40;5.40;;;;;;;;;;5046875;28;20452;-76
2023/09/17 13:59:11;;;;;;;10.17;4.70;;;;;;;;;;5033090;28;20470;-76
2023/09/17 14:02:17;;;;;;;11.20;5.50;;;;;;;;;;5034214;28;20452;-77
2023/09/17 14:05:04;;;;;;;13.23;8.17;;;;;;;;;;5012317;28;20444;-76
2023/09/17 14:07:38;;;;;;;11.93;5.23;;;;;;;;;;5023953;28;20528;-75
2023/09/17 14:10:10;;;;;;;10.10;4.87;;;;;;;;;;5036030;28;20487;-77
2023/09/17 14:12:44;;;;;;;10.10;5.30;;;;;;;;;;5034790;28;20546;-75
2023/09/17 14:15:22;;;;;;;9.60;4.63;;;;;;;;;;5051626;28;20535;-76
2023/09/17 14:21:37;;;;;;;9.13;5.10;;;;;;;;;;5026824;28;20457;-77
2023/09/17 14:24:09;;;;;;;9.73;5.17;;;;;;;;;;5034365;28;20567;-75
2023/09/17 14:26:38;;;;;;;10.10;4.90;;;;;;;;;;5039558;28;20504;-77
2023/09/17 14:29:12;;;;;;;9.70;4.60;;;;;;;;;;5035529;28;20957;-75
2023/09/17 14:34:42;;;;;;;8.20;4.17;;;;;;;;;;5043227;28;20470;-76
2023/09/17 14:37:10;;;;;;;10.90;4.63;;;;;;;;;;5029818;28;20729;-76
2023/09/17 14:39:39;;;;;;;8.57;4.07;;;;;;;;;;5023310;28;20516;-76
2023/09/17 14:42:08;;;;;;;8.13;4.23;;;;;;;;;;5014187;28;20463;-75
2023/09/17 14:44:36;;;;;;;9.10;4.60;;;;;;;;;;5020922;28;20438;-75
2023/09/17 14:47:08;;;;;;;8.60;4.10;;;;;;;;;;5036205;28;20479;-76
2023/09/17 14:52:40;;;;;;;10.03;4.20;;;;;;;;;;5018614;28;20432;-75
2023/09/17 14:55:11;;;;;;;8.80;4.27;;;;;;;;;;5022073;28;20457;-76
2023/09/17 14:57:46;;;;;;;8.80;4.47;;;;;;;;;;5034048;28;20458;-76
2023/09/17 15:03:24;;;;;;;9.43;4.00;;;;;;;;;;5029624;28;20442;-77
2023/09/17 15:06:12;;;;;;;9.73;4.13;;;;;;;;;;5041798;28;20602;-76
2023/09/17 15:09:00;;;;;;;9.53;5.10;;;;;;;;;;5056037;28;20503;-76
2023/09/17 15:11:41;;;;;;;;;;;;;;;;;;;;;
2023/09/17 15:17:28;;;;;;;;;;;;;;;;;;;;;
2023/09/17 15:20:21;;;;;;;7.57;3.77;;;;;;;;;;5034422;28;20958;-76
2023/09/17 15:23:04;;;;;;;11.50;5.00;;;;;;;;;;4974280;28;20519;-76
2023/09/17 15:26:09;;;;;;;10.50;5.23;;;;;;;;;;5032658;28;20486;-77
2023/09/17 15:28:37;;;;;;;9.33;4.50;;;;;;;;;;4985126;28;20576;-77
2023/09/17 15:34:17;;;;;;;8.77;4.37;;;;;;;;;;5035573;28;20461;-77
2023/09/17 15:36:54;;;;;;;8.90;4.40;;;;;;;;;;5034023;28;20481;-80
2023/09/17 15:42:13;;;;;;;8.40;4.30;;;;;;;;;;5039065;28;20763;-77
2023/09/17 15:44:56;;;;;;;10.10;4.67;;;;;;;;;;5051278;28;20873;-76
2023/09/17 15:47:46;;;;;;;;;;;;;;;;;;;;;
2023/09/17 15:50:29;;;;;;;10.07;5.13;;;;;;;;;;5028591;28;20502;-78
2023/09/17 16:04:46;;;;;;;9.10;3.80;;;;;;;;;;5045865;28;21190;-78
2023/09/17 16:12:59;;;;;;;9.70;5.20;;;;;;;;;;5056300;28;20572;-75
2023/09/17 16:15:28;;;;;;;10.37;5.00;;;;;;;;;;5057501;28;20860;-76
2023/09/17 16:21:05;;;;;;;12.30;4.90;;;;;;;;;;5023896;28;20474;-76
2023/09/17 16:26:36;;;;;;;9.07;3.80;;;;;;;;;;5025683;28;20500;-75
2023/09/17 16:34:56;;;;;;;9.30;4.20;;;;;;;;;;4972678;28;21049;-76
2023/09/17 16:37:28;;;;;;;10.00;5.10;;;;;;;;;;4977275;28;20449;-75
2023/09/17 16:40:10;;;;;;;10.90;4.77;;;;;;;;;;5010059;28;20831;-76
2023/09/17 16:45:30;;;;;;;8.93;4.20;;;;;;;;;;5041589;28;20482;-77
2023/09/17 17:02:38;;;;;;;8.33;4.43;;;;;;;;;;4945759;29;20530;-80
2023/09/17 17:08:00;;;;;;;9.90;4.00;;;;;;;;;;4958704;28;20960;-76
2023/09/17 17:10:33;;;;;;;10.67;4.73;;;;;;;;;;4979160;28;20750;-76
2023/09/17 17:13:22;;;;;;;12.03;5.73;;;;;;;;;;4994503;28;20519;-77
2023/09/17 17:15:52;;;;;;;9.43;4.47;;;;;;;;;;5001346;28;20528;-76
2023/09/17 17:18:33;;;;;;;8.10;4.60;;;;;;;;;;5014163;28;20869;-77
2023/09/17 17:21:10;;;;;;;17.53;4.97;;;;;;;;;;5014857;28;20443;-76
2023/09/17 17:23:51;;;;;;;8.40;4.37;;;;;;;;;;4972851;28;20492;-75
2023/09/17 17:26:28;;;;;;;8.27;4.20;;;;;;;;;;5030086;28;20482;-76
2023/09/17 17:28:59;;;;;;;10.83;4.77;;;;;;;;;;5036917;28;20481;-75
2023/09/17 17:31:30;;;;;;;8.57;4.60;;;;;;;;;;5050532;28;20529;-75
2023/09/17 17:34:00;;;;;;;8.37;4.80;;;;;;;;;;5051769;28;20437;-76
2023/09/17 17:39:24;;;;;;;9.30;5.10;;;;;;;;;;5053192;28;20450;-76
2023/09/17 17:41:53;;;;;;;8.53;4.97;;;;;;;;;;5056832;28;20484;-76
2023/09/17 17:44:46;;;;;;;9.40;5.13;;;;;;;;;;5056152;28;20442;-75
2023/09/17 17:47:19;;;;;;;7.63;4.30;;;;;;;;;;5055933;28;20592;-74
2023/09/17 17:49:49;;;;;;;9.17;4.70;;;;;;;;;;5055150;28;20457;-74
2023/09/17 17:52:20;;;;;;;8.37;4.90;;;;;;;;;;5054390;28;20468;-76
2023/09/17 17:54:52;;;;;;;14.80;5.90;;;;;;;;;;5040662;28;20910;-77
2023/09/17 17:57:24;;;;;;;11.60;5.80;;;;;;;;;;5034394;28;20450;-74
2023/09/17 17:59:54;;;;;;;8.63;4.77;;;;;;;;;;5035664;28;20945;-74